Time;durP1;ratioP1;P1;durP2;ratioP2;P2;SDS_P1;SDS_P2;PMS_P1;PMS_P2;Temp;Humidity;BMP_temperature;BMP_pressure;BME280_temperature;BME280_humidity;BME280_pressure;Samples;Min_cycle;Max_cycle;Signal;HPM_P1;HPM_P2
2021/07/07 00:00:12;;;;;;;8.63;1.70;;;16.90;99.90;;;;;;6125921;23;20264;-81
2021/07/07 00:02:39;;;;;;;2.25;1.58;;;17.00;99.90;;;;;;6126002;23;20196;-83
2021/07/07 00:05:07;;;;;;;5.38;1.85;;;17.20;99.90;;;;;;6126585;23;20263;-82
2021/07/07 00:07:34;;;;;;;5.50;1.95;;;17.10;99.90;;;;;;6126163;23;20248;-83
2021/07/07 00:10:04;;;;;;;1.50;1.40;;;16.80;99.90;;;;;;6125144;23;20276;-83
2021/07/07 00:12:31;;;;;;;5.97;1.30;;;16.80;99.90;;;;;;6126009;23;20189;-83
2021/07/07 00:14:59;;;;;;;3.78;1.80;;;16.80;99.90;;;;;;6127204;23;20188;-82
2021/07/07 00:17:26;;;;;;;5.45;1.38;;;16.80;99.90;;;;;;6127179;23;20173;-82
2021/07/07 00:19:53;;;;;;;6.20;1.80;;;16.80;99.90;;;;;;6126486;23;20229;-83
2021/07/07 00:22:20;;;;;;;2.85;1.60;;;17.00;99.90;;;;;;6127400;23;20177;-82
2021/07/07 00:24:47;;;;;;;5.20;1.90;;;16.80;99.90;;;;;;6127588;23;20263;-83
2021/07/07 00:27:15;;;;;;;5.20;3.20;;;17.10;99.90;;;;;;6126512;23;20360;-83
2021/07/07 00:29:43;;;;;;;6.47;3.75;;;16.90;99.90;;;;;;6125958;23;20229;-82
2021/07/07 00:32:11;;;;;;;10.63;5.30;;;16.90;99.90;;;;;;6126495;23;20184;-82
2021/07/07 00:34:38;;;;;;;12.63;6.97;;;16.90;99.90;;;;;;6126672;23;20214;-83
2021/07/07 00:37:05;;;;;;;8.73;5.28;;;16.90;99.90;;;;;;6127027;23;20200;-81
2021/07/07 00:39:32;;;;;;;6.88;2.20;;;16.80;99.90;;;;;;6126246;23;20256;-82
2021/07/07 00:41:59;;;;;;;7.88;1.90;;;16.80;99.90;;;;;;6125698;23;20260;-82
2021/07/07 00:44:27;;;;;;;4.75;1.95;;;16.80;99.90;;;;;;6125339;23;20260;-82
2021/07/07 00:46:54;;;;;;;7.50;2.90;;;16.80;99.90;;;;;;6125503;23;20173;-82
2021/07/07 00:49:21;;;;;;;9.20;3.40;;;16.60;99.90;;;;;;6125469;23;20236;-81
2021/07/07 00:51:48;;;;;;;10.05;6.32;;;16.70;99.90;;;;;;6125389;23;20181;-82
2021/07/07 00:54:16;;;;;;;13.43;6.78;;;16.70;99.90;;;;;;6126067;23;20185;-83
2021/07/07 00:56:44;;;;;;;12.13;6.93;;;16.70;99.90;;;;;;6126429;23;20184;-83
2021/07/07 00:59:11;;;;;;;12.65;7.28;;;16.60;99.90;;;;;;6126184;23;20755;-80
2021/07/07 01:01:40;;;;;;;11.55;6.28;;;16.70;99.90;;;;;;6129174;23;20181;-83
2021/07/07 01:04:07;;;;;;;7.07;2.90;;;16.70;99.90;;;;;;6130213;23;20181;-82
2021/07/07 01:06:34;;;;;;;6.63;3.25;;;16.50;99.90;;;;;;6127189;23;20204;-83
2021/07/07 01:09:01;;;;;;;4.40;3.00;;;16.70;99.90;;;;;;6127672;23;20201;-81
2021/07/07 01:11:28;;;;;;;3.17;2.63;;;16.60;99.90;;;;;;6126644;23;20651;-83
2021/07/07 01:13:55;;;;;;;4.55;2.17;;;16.70;99.90;;;;;;6127853;23;20623;-83
2021/07/07 01:16:22;;;;;;;5.25;1.85;;;16.70;99.90;;;;;;6127571;23;20233;-83
2021/07/07 01:18:50;;;;;;;4.10;1.90;;;16.70;99.90;;;;;;6126904;23;20201;-84
2021/07/07 01:21:19;;;;;;;2.13;1.90;;;16.60;99.90;;;;;;6126707;23;20183;-84
2021/07/07 01:23:47;;;;;;;5.85;2.58;;;16.50;99.90;;;;;;6127363;23;20201;-82
2021/07/07 01:26:14;;;;;;;4.60;2.50;;;16.60;99.90;;;;;;6127316;23;20196;-83
2021/07/07 01:28:41;;;;;;;9.55;3.70;;;16.60;99.90;;;;;;6127647;23;20520;-84
2021/07/07 01:31:08;;;;;;;7.65;4.00;;;16.60;99.90;;;;;;6126504;23;20256;-82
2021/07/07 01:33:35;;;;;;;7.07;5.32;;;16.60;99.90;;;;;;6126848;23;20188;-84
2021/07/07 01:36:02;;;;;;;18.10;7.78;;;16.50;99.90;;;;;;6125941;23;20244;-83
2021/07/07 01:38:29;;;;;;;11.63;5.38;;;16.50;99.90;;;;;;6126430;23;20268;-84
2021/07/07 01:40:58;;;;;;;9.98;3.10;;;16.40;99.90;;;;;;6126582;23;20256;-81
2021/07/07 01:43:25;;;;;;;5.13;2.15;;;16.40;99.90;;;;;;6126561;23;20579;-83
2021/07/07 01:45:52;;;;;;;5.38;1.80;;;16.30;99.90;;;;;;6128155;23;20199;-81
2021/07/07 01:48:19;;;;;;;5.78;1.83;;;16.20;99.90;;;;;;6126817;23;20239;-83
2021/07/07 01:50:46;;;;;;;6.38;1.83;;;16.10;99.90;;;;;;6127567;23;20215;-83
2021/07/07 01:53:13;;;;;;;3.67;1.52;;;16.10;99.90;;;;;;6126523;23;20260;-83
2021/07/07 01:55:40;;;;;;;5.13;1.90;;;16.00;99.90;;;;;;6127525;23;20180;-82
2021/07/07 01:58:08;;;;;;;6.18;2.17;;;16.00;99.90;;;;;;6127056;23;20212;-82
2021/07/07 02:00:36;;;;;;;6.65;1.92;;;16.10;99.90;;;;;;6126550;23;20181;-82
2021/07/07 02:03:03;;;;;;;5.03;1.30;;;16.20;99.90;;;;;;6127701;23;20217;-82
2021/07/07 02:05:32;;;;;;;3.83;1.40;;;16.30;99.90;;;;;;6127089;23;20196;-81
2021/07/07 02:08:00;;;;;;;4.30;1.50;;;16.10;99.90;;;;;;6127743;23;20208;-82
2021/07/07 02:10:27;;;;;;;3.08;1.63;;;16.00;99.90;;;;;;6126690;23;20591;-81
2021/07/07 02:12:54;;;;;;;1.75;1.65;;;16.10;99.90;;;;;;6127191;23;20173;-82
2021/07/07 02:15:24;;;;;;;2.10;1.33;;;16.20;99.90;;;;;;6124593;23;20264;-82
2021/07/07 02:17:53;;;;;;;3.40;1.40;;;16.10;99.90;;;;;;6125024;23;20616;-82
2021/07/07 02:20:20;;;;;;;3.80;1.77;;;16.10;99.90;;;;;;6123638;23;20279;-84
2021/07/07 02:22:49;;;;;;;2.90;1.50;;;16.10;99.90;;;;;;6124843;23;20161;-83
2021/07/07 02:25:23;;;;;;;3.28;1.90;;;16.10;99.90;;;;;;6123712;23;20187;-83
2021/07/07 02:27:50;;;;;;;3.22;2.03;;;16.20;99.90;;;;;;6123489;23;20165;-83
2021/07/07 02:30:20;;;;;;;4.00;3.00;;;16.20;99.90;;;;;;6124308;23;20212;-81
2021/07/07 02:32:49;;;;;;;5.18;3.28;;;16.20;99.90;;;;;;6124566;23;20173;-81
2021/07/07 02:35:18;;;;;;;9.20;3.38;;;16.30;99.90;;;;;;6125358;23;20181;-82
2021/07/07 02:37:47;;;;;;;6.28;3.30;;;16.30;99.90;;;;;;6124928;23;20686;-80
2021/07/07 02:40:14;;;;;;;5.63;3.63;;;16.00;99.90;;;;;;6123722;23;20288;-82
2021/07/07 02:42:41;;;;;;;6.60;3.53;;;16.30;99.90;;;;;;6125807;23;20204;-81
2021/07/07 02:45:10;;;;;;;6.72;3.22;;;16.40;99.90;;;;;;6125661;23;20260;-82
2021/07/07 02:47:37;;;;;;;5.32;3.28;;;16.30;99.90;;;;;;6124838;23;20203;-83
2021/07/07 02:50:06;;;;;;;9.05;3.72;;;16.10;99.90;;;;;;6124092;23;20224;-83
2021/07/07 02:52:33;;;;;;;7.30;2.70;;;16.00;99.90;;;;;;6124122;23;20177;-84
2021/07/07 02:55:00;;;;;;;4.60;2.70;;;16.20;99.90;;;;;;6123770;23;20165;-83
2021/07/07 02:57:27;;;;;;;5.60;2.35;;;16.10;99.90;;;;;;6124640;23;20533;-84
2021/07/07 02:59:53;;;;;;;3.22;2.30;;;16.20;99.90;;;;;;6123898;23;20211;-80
2021/07/07 03:02:20;;;;;;;6.32;2.00;;;16.30;99.90;;;;;;6125229;23;20193;-84
2021/07/07 03:04:47;;;;;;;4.40;2.17;;;16.10;99.90;;;;;;6126873;23;20173;-84
2021/07/07 03:07:16;;;;;;;4.10;2.38;;;16.20;99.90;;;;;;6127745;23;20576;-83
2021/07/07 03:09:42;;;;;;;6.20;2.08;;;16.20;99.90;;;;;;6128196;23;20224;-83
2021/07/07 03:12:09;;;;;;;3.53;1.70;;;16.20;99.90;;;;;;6127685;23;20209;-83
2021/07/07 03:14:36;;;;;;;2.55;1.65;;;16.20;99.90;;;;;;6127735;23;20219;-83
2021/07/07 03:17:04;;;;;;;1.67;1.55;;;16.20;99.90;;;;;;6125380;23;20177;-83
2021/07/07 03:19:30;;;;;;;9.05;1.92;;;16.30;99.90;;;;;;6127709;23;20201;-83
2021/07/07 03:21:57;;;;;;;3.00;1.92;;;16.20;99.90;;;;;;6127281;23;20185;-82
2021/07/07 03:24:25;;;;;;;4.28;1.77;;;16.10;99.90;;;;;;6127480;23;20212;-82
2021/07/07 03:26:52;;;;;;;2.67;1.70;;;16.20;99.90;;;;;;6126887;23;20200;-82
2021/07/07 03:29:19;;;;;;;7.35;2.05;;;16.20;99.90;;;;;;6126880;23;20197;-83
2021/07/07 03:31:46;;;;;;;5.40;2.20;;;16.20;99.90;;;;;;6126130;23;20200;-81
2021/07/07 03:34:13;;;;;;;5.13;2.10;;;16.00;99.90;;;;;;6126208;23;20260;-82
2021/07/07 03:36:40;;;;;;;4.25;1.70;;;15.80;99.90;;;;;;6126328;23;20196;-83
2021/07/07 03:39:06;;;;;;;2.10;1.63;;;15.80;99.90;;;;;;6126385;23;20213;-81
2021/07/07 03:41:35;;;;;;;5.10;1.67;;;15.80;99.90;;;;;;6125955;23;20260;-83
2021/07/07 03:44:01;;;;;;;4.88;2.00;;;15.80;99.90;;;;;;6127505;23;20252;-83
2021/07/07 03:46:28;;;;;;;4.72;1.90;;;15.80;99.90;;;;;;6128123;23;20220;-81
2021/07/07 03:48:55;;;;;;;5.93;1.70;;;15.90;99.90;;;;;;6126785;23;20596;-82
2021/07/07 03:51:22;;;;;;;5.05;1.40;;;15.80;99.90;;;;;;6126192;23;20220;-84
2021/07/07 03:53:49;;;;;;;3.58;1.80;;;16.00;99.90;;;;;;6126869;23;20256;-81
2021/07/07 03:56:15;;;;;;;5.00;1.80;;;15.90;99.90;;;;;;6126611;23;20173;-83
2021/07/07 03:58:44;;;;;;;6.80;2.60;;;16.00;99.90;;;;;;6126767;23;20305;-80
2021/07/07 04:01:12;;;;;;;6.40;2.00;;;15.80;99.90;;;;;;6127042;23;20232;-80
2021/07/07 04:03:39;;;;;;;4.95;1.90;;;15.80;99.90;;;;;;6125797;23;20173;-80
2021/07/07 04:06:06;;;;;;;6.43;2.00;;;15.70;99.90;;;;;;6126150;23;20177;-83
2021/07/07 04:08:33;;;;;;;5.43;2.00;;;15.60;99.90;;;;;;6125606;23;20232;-83
2021/07/07 04:11:00;;;;;;;5.57;1.75;;;15.60;99.90;;;;;;6125682;23;20177;-83
2021/07/07 04:13:28;;;;;;;3.60;1.95;;;15.50;99.90;;;;;;6125502;23;20262;-81
2021/07/07 04:15:57;;;;;;;7.05;2.03;;;15.60;99.90;;;;;;6126744;23;20183;-82
2021/07/07 04:18:24;;;;;;;3.10;1.73;;;15.60;99.90;;;;;;6124697;23;20244;-83
2021/07/07 04:20:50;;;;;;;2.95;1.52;;;15.80;99.90;;;;;;6126350;23;20208;-82
2021/07/07 04:23:18;;;;;;;4.57;1.70;;;15.90;99.90;;;;;;6126106;23;20219;-83
2021/07/07 04:25:44;;;;;;;5.47;1.92;;;15.90;99.90;;;;;;6125129;23;20505;-82
2021/07/07 04:28:11;;;;;;;5.63;1.92;;;15.90;99.90;;;;;;6125820;23;20197;-83
2021/07/07 04:30:38;;;;;;;6.05;1.60;;;15.90;99.90;;;;;;6125107;23;20244;-82
2021/07/07 04:33:07;;;;;;;3.13;1.70;;;15.90;99.90;;;;;;6126282;23;20516;-81
2021/07/07 04:35:33;;;;;;;5.72;1.77;;;15.90;99.90;;;;;;6125705;23;20494;-83
2021/07/07 04:38:00;;;;;;;3.97;1.80;;;16.00;99.90;;;;;;6125376;23;20216;-83
2021/07/07 04:40:27;;;;;;;4.20;1.95;;;16.00;99.90;;;;;;6123976;23;20308;-81
2021/07/07 04:42:54;;;;;;;6.82;3.30;;;16.10;99.90;;;;;;6123738;23;20695;-83
2021/07/07 04:45:21;;;;;;;7.72;3.03;;;16.10;99.90;;;;;;6125344;23;20177;-83
2021/07/07 04:47:48;;;;;;;7.93;3.70;;;16.20;99.90;;;;;;6126795;23;20670;-84
2021/07/07 04:50:18;;;;;;;6.57;3.78;;;16.20;99.90;;;;;;6124683;23;20231;-83
2021/07/07 04:52:45;;;;;;;4.28;1.80;;;16.10;99.90;;;;;;6126871;23;20189;-83
2021/07/07 04:55:13;;;;;;;4.90;2.67;;;16.20;99.90;;;;;;6125389;23;20248;-82
2021/07/07 04:57:43;;;;;;;4.57;2.10;;;16.20;99.90;;;;;;6126042;23;20506;-81
2021/07/07 05:00:12;;;;;;;5.78;2.00;;;16.20;99.90;;;;;;6125425;23;20723;-81
2021/07/07 05:02:41;;;;;;;6.18;2.45;;;16.20;99.90;;;;;;6126482;23;20481;-83
2021/07/07 05:05:09;;;;;;;3.55;2.30;;;16.30;99.90;;;;;;6126635;23;20192;-83
2021/07/07 05:07:38;;;;;;;6.13;2.47;;;16.40;99.90;;;;;;6126540;23;20177;-82
2021/07/07 05:10:06;;;;;;;3.83;2.05;;;16.50;99.90;;;;;;6126918;23;20197;-82
2021/07/07 05:12:33;;;;;;;3.78;1.92;;;16.50;99.90;;;;;;6126681;23;20187;-82
2021/07/07 05:15:01;;;;;;;3.05;1.50;;;16.60;99.90;;;;;;6127295;23;20173;-82
2021/07/07 05:17:28;;;;;;;4.05;1.80;;;16.40;99.90;;;;;;6127120;23;20173;-82
2021/07/07 05:19:55;;;;;;;4.75;1.80;;;16.50;99.90;;;;;;6126177;23;20275;-83
2021/07/07 05:22:22;;;;;;;4.95;2.05;;;16.50;99.90;;;;;;6127253;23;20204;-82
2021/07/07 05:24:50;;;;;;;4.32;1.60;;;16.50;99.90;;;;;;6125847;23;20259;-81
2021/07/07 05:27:17;;;;;;;3.55;1.80;;;16.50;99.90;;;;;;6125982;23;20177;-82
2021/07/07 05:29:44;;;;;;;2.90;1.67;;;16.50;99.90;;;;;;6125120;23;20225;-81
2021/07/07 05:32:11;;;;;;;2.45;1.30;;;16.60;99.90;;;;;;6125923;23;20268;-83
2021/07/07 05:34:40;;;;;;;3.28;1.70;;;16.60;99.90;;;;;;6125761;23;20179;-81
2021/07/07 05:37:07;;;;;;;3.22;1.65;;;16.60;99.90;;;;;;6125437;23;20184;-83
2021/07/07 05:39:34;;;;;;;2.53;1.60;;;16.60;99.90;;;;;;6125688;23;20527;-82
2021/07/07 05:42:02;;;;;;;3.30;1.95;;;16.70;99.90;;;;;;6126315;23;20220;-82
2021/07/07 05:44:29;;;;;;;3.75;1.88;;;16.80;99.90;;;;;;6125722;23;20192;-82
2021/07/07 05:46:55;;;;;;;2.25;1.70;;;16.80;99.90;;;;;;6126344;23;20197;-82
2021/07/07 05:49:22;;;;;;;4.90;1.80;;;16.90;99.90;;;;;;6124921;23;20569;-81
2021/07/07 05:51:49;;;;;;;7.28;1.70;;;16.90;99.90;;;;;;6125562;23;20608;-82
2021/07/07 05:54:16;;;;;;;4.57;2.30;;;16.90;99.90;;;;;;6126143;23;20591;-83
2021/07/07 05:56:43;;;;;;;6.13;2.13;;;17.00;99.90;;;;;;6126055;23;20707;-82
2021/07/07 05:59:11;;;;;;;8.85;2.33;;;17.10;99.90;;;;;;6125027;23;20580;-83
2021/07/07 06:01:38;;;;;;;10.55;3.08;;;17.20;99.90;;;;;;6125503;23;20560;-83
2021/07/07 06:04:05;;;;;;;6.47;2.67;;;17.20;99.90;;;;;;6126918;23;20188;-82
2021/07/07 06:06:32;;;;;;;4.97;2.10;;;17.40;99.90;;;;;;6127406;23;20208;-83
2021/07/07 06:08:59;;;;;;;5.72;3.08;;;17.40;99.90;;;;;;6127318;23;20280;-83
2021/07/07 06:11:31;;;;;;;8.07;2.67;;;17.40;99.90;;;;;;6126090;23;20260;-82
2021/07/07 06:13:59;;;;;;;5.03;2.53;;;17.50;99.90;;;;;;6126789;23;20237;-83
2021/07/07 06:16:27;;;;;;;5.65;2.40;;;17.60;99.90;;;;;;6126991;23;20229;-83
2021/07/07 06:18:54;;;;;;;5.38;2.15;;;17.60;99.90;;;;;;6125937;23;20280;-83
2021/07/07 06:21:21;;;;;;;4.10;2.17;;;18.10;99.90;;;;;;6125880;23;20220;-81
2021/07/07 06:23:48;;;;;;;3.22;1.10;;;18.10;99.90;;;;;;6126414;23;20181;-83
2021/07/07 06:26:15;;;;;;;5.05;1.80;;;18.10;99.90;;;;;;6124523;23;20219;-82
2021/07/07 06:28:42;;;;;;;7.80;2.17;;;18.10;99.90;;;;;;6126001;23;20272;-82
2021/07/07 06:31:09;;;;;;;3.72;1.83;;;18.20;99.90;;;;;;6124415;23;20176;-83
2021/07/07 06:33:37;;;;;;;7.53;2.38;;;18.20;99.90;;;;;;6123889;23;20185;-82
2021/07/07 06:36:04;;;;;;;5.90;3.05;;;18.20;99.90;;;;;;6125649;23;20181;-82
2021/07/07 06:38:31;;;;;;;4.82;2.63;;;18.20;99.90;;;;;;6125511;23;20599;-81
2021/07/07 06:40:58;;;;;;;4.72;2.33;;;18.40;99.90;;;;;;6126918;23;20905;-82
2021/07/07 06:43:25;;;;;;;8.43;3.13;;;18.50;99.90;;;;;;6127537;23;20631;-83
2021/07/07 06:45:52;;;;;;;5.47;2.47;;;18.60;99.90;;;;;;6127634;23;20158;-82
2021/07/07 06:48:19;;;;;;;6.10;3.15;;;18.90;99.90;;;;;;6127925;23;20264;-81
2021/07/07 06:50:47;;;;;;;5.32;2.92;;;19.10;99.90;;;;;;6128002;23;20540;-81
2021/07/07 06:53:15;;;;;;;3.20;2.30;;;19.30;99.90;;;;;;6127617;23;20666;-81
2021/07/07 06:55:42;;;;;;;4.70;1.85;;;19.70;99.90;;;;;;6127707;23;20550;-82
2021/07/07 06:58:12;;;;;;;2.20;1.50;;;19.70;99.90;;;;;;6127278;23;20184;-83
2021/07/07 07:00:39;;;;;;;5.32;1.60;;;19.90;99.90;;;;;;6128258;23;20185;-83
2021/07/07 07:03:08;;;;;;;2.97;2.03;;;20.00;99.90;;;;;;6126862;23;20189;-82
2021/07/07 07:05:35;;;;;;;2.88;1.90;;;20.00;99.90;;;;;;6127479;23;20484;-83
2021/07/07 07:08:04;;;;;;;4.70;1.77;;;19.90;99.90;;;;;;6127940;23;20197;-82
2021/07/07 07:10:31;;;;;;;3.42;1.48;;;20.00;99.90;;;;;;6128484;23;20213;-83
2021/07/07 07:12:58;;;;;;;3.75;1.67;;;19.80;99.90;;;;;;6128651;23;20212;-82
2021/07/07 07:15:25;;;;;;;3.35;1.70;;;19.80;99.90;;;;;;6128305;23;20180;-83
2021/07/07 07:17:52;;;;;;;4.30;1.90;;;19.90;99.90;;;;;;6129578;23;20206;-81
2021/07/07 07:20:19;;;;;;;3.97;1.70;;;19.90;99.90;;;;;;6127937;23;20272;-83
2021/07/07 07:22:46;;;;;;;3.00;1.67;;;19.90;99.90;;;;;;6128319;23;20189;-82
2021/07/07 07:25:15;;;;;;;2.38;1.60;;;19.90;99.90;;;;;;6128947;23;20201;-83
2021/07/07 07:27:43;;;;;;;5.15;2.20;;;19.90;99.90;;;;;;6127998;23;20574;-82
2021/07/07 07:30:11;;;;;;;3.90;1.88;;;19.80;99.90;;;;;;6128008;23;20221;-83
2021/07/07 07:32:39;;;;;;;2.63;1.55;;;20.10;99.90;;;;;;6128095;23;20220;-83
2021/07/07 07:35:06;;;;;;;5.07;1.75;;;20.00;99.90;;;;;;6127603;23;20252;-82
2021/07/07 07:37:39;;;;;;;1.77;1.60;;;20.00;99.90;;;;;;6128302;23;20252;-83
2021/07/07 07:40:11;;;;;;;3.15;1.60;;;20.10;99.90;;;;;;6126873;23;20277;-83
2021/07/07 07:42:43;;;;;;;4.03;1.80;;;20.20;99.90;;;;;;6127622;23;20252;-83
2021/07/07 07:45:11;;;;;;;1.58;1.48;;;20.40;99.90;;;;;;6127343;23;20196;-82
2021/07/07 07:47:38;;;;;;;5.93;1.73;;;20.60;99.90;;;;;;6127248;23;20177;-83
2021/07/07 07:50:06;;;;;;;4.60;2.00;;;20.70;99.90;;;;;;6126238;23;20224;-81
2021/07/07 07:52:33;;;;;;;5.57;1.50;;;20.40;99.90;;;;;;6127876;23;20173;-83
2021/07/07 07:54:59;;;;;;;7.18;1.80;;;20.80;99.90;;;;;;6127310;23;20655;-83
2021/07/07 07:57:26;;;;;;;3.72;1.50;;;20.80;99.90;;;;;;6127464;23;20627;-82
2021/07/07 07:59:54;;;;;;;1.70;1.50;;;20.90;99.90;;;;;;6127380;23;20232;-82
2021/07/07 08:02:21;;;;;;;2.70;1.95;;;20.90;99.90;;;;;;6127049;23;20188;-82
2021/07/07 08:04:49;;;;;;;3.63;2.20;;;21.30;99.90;;;;;;6126777;23;20260;-83
2021/07/07 08:07:16;;;;;;;5.20;1.83;;;21.30;99.90;;;;;;6126543;23;20259;-83
2021/07/07 08:09:43;;;;;;;5.13;2.15;;;21.30;99.90;;;;;;6127645;23;20718;-82
2021/07/07 08:12:10;;;;;;;5.40;1.83;;;21.30;99.90;;;;;;6126993;23;20620;-83
2021/07/07 08:14:37;;;;;;;4.63;1.88;;;21.00;99.90;;;;;;6127031;23;20228;-83
2021/07/07 08:17:05;;;;;;;4.22;1.63;;;21.30;99.90;;;;;;6126815;23;20189;-83
2021/07/07 08:19:32;;;;;;;4.40;1.98;;;21.20;99.90;;;;;;6126293;23;20281;-82
2021/07/07 08:21:59;;;;;;;4.05;1.77;;;21.20;99.90;;;;;;6127349;23;20217;-83
2021/07/07 08:24:26;;;;;;;4.35;2.08;;;21.40;99.90;;;;;;6127509;23;20504;-82
2021/07/07 08:26:57;;;;;;;4.32;1.60;;;21.30;99.90;;;;;;6126878;23;20244;-82
2021/07/07 08:29:24;;;;;;;5.43;2.15;;;21.30;99.90;;;;;;6127584;23;20655;-82
2021/07/07 08:31:51;;;;;;;5.63;1.80;;;21.50;99.90;;;;;;6126262;23;20215;-83
2021/07/07 08:34:19;;;;;;;2.30;1.55;;;21.40;99.90;;;;;;6126589;23;20220;-80
2021/07/07 08:36:46;;;;;;;5.53;2.08;;;21.50;99.90;;;;;;6126888;23;20577;-83
2021/07/07 08:39:13;;;;;;;3.90;1.98;;;21.30;99.90;;;;;;6127515;23;20586;-82
2021/07/07 08:41:41;;;;;;;2.72;1.73;;;21.40;99.90;;;;;;6125728;23;20236;-83
2021/07/07 08:44:08;;;;;;;2.55;2.22;;;21.50;99.90;;;;;;6126494;23;20212;-82
2021/07/07 08:46:35;;;;;;;3.20;2.08;;;21.60;99.90;;;;;;6126361;23;20223;-83
2021/07/07 08:49:04;;;;;;;5.78;2.13;;;21.40;99.90;;;;;;6126213;23;20219;-83
2021/07/07 08:51:33;;;;;;;3.65;2.00;;;21.50;99.90;;;;;;6126531;23;20255;-83
2021/07/07 08:54:01;;;;;;;2.92;2.05;;;21.80;99.90;;;;;;6126431;23;20219;-83
2021/07/07 08:56:28;;;;;;;5.72;2.05;;;22.10;99.90;;;;;;6125571;23;20177;-82
2021/07/07 08:58:55;;;;;;;5.95;2.08;;;21.90;99.90;;;;;;6126430;23;20232;-82
2021/07/07 09:01:21;;;;;;;5.75;2.53;;;21.90;99.90;;;;;;6125934;23;20217;-83
2021/07/07 09:03:48;;;;;;;5.32;1.90;;;22.50;99.90;;;;;;6126353;23;20719;-81
2021/07/07 09:06:16;;;;;;;4.50;1.90;;;23.10;99.90;;;;;;6126786;23;20185;-82
2021/07/07 09:08:49;;;;;;;9.10;1.98;;;23.60;99.90;;;;;;6125532;23;20228;-82
2021/07/07 09:11:19;;;;;;;2.20;2.00;;;24.30;99.90;;;;;;6124835;23;20197;-83
2021/07/07 09:13:47;;;;;;;4.53;2.22;;;24.30;99.90;;;;;;6125011;23;20161;-83
2021/07/07 09:16:16;;;;;;;6.80;2.10;;;24.60;99.90;;;;;;6125175;23;20212;-82
2021/07/07 09:18:43;;;;;;;4.38;2.03;;;25.00;99.90;;;;;;6124340;23;20276;-82
2021/07/07 09:21:28;;;;;;;6.53;2.00;;;24.90;99.90;;;;;;6123319;23;20991;-83
2021/07/07 09:23:59;;;;;;;1.95;1.80;;;24.90;99.90;;;;;;6123170;23;20183;-82
2021/07/07 09:26:31;;;;;;;2.38;1.98;;;25.40;99.90;;;;;;6124022;23;20169;-83
2021/07/07 09:28:58;;;;;;;3.80;1.83;;;25.90;99.90;;;;;;6124419;23;20682;-83
2021/07/07 09:31:37;;;;;;;6.60;2.17;;;26.00;99.90;;;;;;6124076;23;20188;-82
2021/07/07 09:34:12;;;;;;;4.80;2.40;;;25.90;99.90;;;;;;6125640;23;20576;-82
2021/07/07 09:36:41;;;;;;;5.63;1.58;;;25.50;99.90;;;;;;6125746;23;20203;-83
2021/07/07 09:39:09;;;;;;;4.95;1.92;;;25.30;99.90;;;;;;6124693;23;20200;-83
2021/07/07 09:41:36;;;;;;;4.38;1.80;;;25.00;99.90;;;;;;6123794;23;20232;-82
2021/07/07 09:44:04;;;;;;;3.67;2.22;;;25.20;99.90;;;;;;6123627;23;20216;-82
2021/07/07 09:46:30;;;;;;;5.68;1.60;;;25.70;99.90;;;;;;6122955;23;20554;-83
2021/07/07 09:48:57;;;;;;;3.67;1.75;;;25.90;99.90;;;;;;6124183;23;20189;-83
2021/07/07 09:51:24;;;;;;;8.77;2.10;;;25.60;99.90;;;;;;6124108;23;20572;-83
2021/07/07 09:53:51;;;;;;;6.65;2.33;;;25.40;99.90;;;;;;6124686;23;20241;-83
2021/07/07 09:56:19;;;;;;;5.10;2.03;;;25.20;99.90;;;;;;6123983;23;20259;-83
2021/07/07 09:58:46;;;;;;;4.80;2.17;;;24.80;99.90;;;;;;6123878;23;20229;-82
2021/07/07 10:01:13;;;;;;;3.60;1.80;;;24.40;99.90;;;;;;6123381;23;20268;-82
2021/07/07 10:03:41;;;;;;;6.15;2.60;;;24.10;99.90;;;;;;6124577;23;20181;-83
2021/07/07 10:06:08;;;;;;;5.18;2.38;;;23.90;99.90;;;;;;6124645;23;20181;-83
2021/07/07 10:08:35;;;;;;;4.40;1.65;;;24.10;99.90;;;;;;6124574;23;20197;-83
2021/07/07 10:11:03;;;;;;;4.70;2.47;;;24.10;99.90;;;;;;6123395;23;20204;-82
2021/07/07 10:13:31;;;;;;;4.10;1.73;;;25.10;99.90;;;;;;6123250;23;20276;-83
2021/07/07 10:15:58;;;;;;;5.85;3.42;;;25.70;99.90;;;;;;6126380;23;20161;-82
2021/07/07 10:18:25;;;;;;;3.33;1.92;;;26.00;99.90;;;;;;6126591;23;20192;-83
2021/07/07 10:20:53;;;;;;;5.47;1.70;;;26.10;99.90;;;;;;6126258;23;20662;-83
2021/07/07 10:23:20;;;;;;;4.10;1.60;;;26.60;99.90;;;;;;6126148;23;20940;-83
2021/07/07 10:25:48;;;;;;;3.70;1.55;;;26.00;99.90;;;;;;6126047;23;20181;-83
2021/07/07 10:28:16;;;;;;;4.18;2.00;;;25.50;99.90;;;;;;6125183;23;20213;-83
2021/07/07 10:30:54;;;;;;;4.05;1.90;;;25.20;99.90;;;;;;6124537;23;20215;-82
2021/07/07 10:33:22;;;;;;;6.85;2.10;;;25.20;99.90;;;;;;6124855;23;20173;-82
2021/07/07 10:35:50;;;;;;;7.55;2.38;;;25.60;99.90;;;;;;6124730;23;20651;-82
2021/07/07 10:38:17;;;;;;;3.50;1.63;;;25.60;99.90;;;;;;6123917;23;20252;-82
2021/07/07 10:40:51;;;;;;;4.65;2.47;;;26.40;99.90;;;;;;6124343;23;20272;-83
2021/07/07 10:43:42;;;;;;;7.40;2.65;;;26.80;99.90;;;;;;6124331;23;20177;-82
2021/07/07 10:46:10;;;;;;;5.15;2.00;;;27.00;99.90;;;;;;6127101;23;20208;-82
2021/07/07 10:48:37;;;;;;;5.18;1.95;;;26.90;99.90;;;;;;6124692;23;20272;-83
2021/07/07 10:51:26;;;;;;;4.55;1.60;;;27.20;99.90;;;;;;6124484;23;20197;-83
2021/07/07 10:53:53;;;;;;;5.80;1.48;;;27.70;99.90;;;;;;6126976;23;20204;-82
2021/07/07 10:56:43;;;;;;;4.97;1.55;;;27.40;99.90;;;;;;6126461;23;20699;-83
2021/07/07 10:59:29;;;;;;;5.93;1.45;;;27.10;99.90;;;;;;6125800;23;20249;-83
2021/07/07 11:02:06;;;;;;;5.80;1.70;;;26.90;99.90;;;;;;6126835;23;20211;-82
2021/07/07 11:04:37;;;;;;;3.47;1.38;;;27.50;99.90;;;;;;6126002;23;20165;-82
2021/07/07 11:07:36;;;;;;;3.53;1.75;;;27.80;99.90;;;;;;6126400;23;20204;-83
2021/07/07 11:10:10;;;;;;;2.63;1.90;;;27.80;99.90;;;;;;6125461;23;20299;-82
2021/07/07 11:13:15;;;;;;;5.47;1.83;;;27.70;99.90;;;;;;6126064;23;20684;-83
2021/07/07 11:15:44;;;;;;;3.72;1.80;;;27.50;99.90;;;;;;6126404;23;20183;-83
2021/07/07 11:18:21;;;;;;;3.78;1.83;;;28.30;99.90;;;;;;6125451;23;20177;-83
2021/07/07 11:21:03;;;;;;;3.25;1.60;;;28.20;99.90;;;;;;6126374;23;20185;-82
2021/07/07 11:23:31;;;;;;;3.78;1.60;;;28.30;99.90;;;;;;6125295;23;20239;-83
2021/07/07 11:25:58;;;;;;;5.72;1.52;;;28.20;99.90;;;;;;6127656;23;20248;-82
2021/07/07 11:28:25;;;;;;;4.57;1.73;;;27.60;99.90;;;;;;6129191;23;20256;-83
2021/07/07 11:30:52;;;;;;;8.55;1.92;;;27.70;99.90;;;;;;6128127;23;20200;-83
2021/07/07 11:33:20;;;;;;;4.82;1.70;;;28.20;99.90;;;;;;6127114;23;20228;-83
2021/07/07 11:35:50;;;;;;;4.72;1.90;;;27.80;99.90;;;;;;6129684;23;20237;-83
2021/07/07 11:38:20;;;;;;;3.97;1.67;;;27.70;99.90;;;;;;6129952;23;20215;-83
2021/07/07 11:40:52;;;;;;;6.90;2.08;;;27.50;99.90;;;;;;6130418;23;20569;-83
2021/07/07 11:43:21;;;;;;;2.95;1.50;;;27.50;99.90;;;;;;6129287;23;20184;-83
2021/07/07 11:45:50;;;;;;;5.35;2.08;;;27.80;99.90;;;;;;6130361;23;20181;-82
2021/07/07 11:48:20;;;;;;;4.65;2.58;;;27.40;99.90;;;;;;6131055;23;20201;-82
2021/07/07 11:50:53;;;;;;;6.22;2.33;;;27.30;99.90;;;;;;6130346;23;20177;-83
2021/07/07 11:53:20;;;;;;;4.45;1.80;;;27.40;99.90;;;;;;6129764;23;20172;-83
2021/07/07 11:55:59;;;;;;;4.05;1.65;;;28.00;99.90;;;;;;6128731;23;20632;-83
2021/07/07 11:58:32;;;;;;;7.13;2.20;;;27.70;99.90;;;;;;6128823;23;20187;-83
2021/07/07 12:01:01;;;;;;;5.63;2.10;;;28.00;99.90;;;;;;6129047;23;20168;-83
2021/07/07 12:03:28;;;;;;;4.30;2.08;;;27.60;99.90;;;;;;6129684;23;20180;-83
2021/07/07 12:06:01;;;;;;;2.28;1.70;;;27.80;99.90;;;;;;6130505;23;20209;-83
2021/07/07 12:08:32;;;;;;;3.80;1.48;;;27.50;99.90;;;;;;6129579;23;20268;-83
2021/07/07 12:11:10;;;;;;;6.40;1.80;;;27.20;99.90;;;;;;6128776;23;20192;-83
2021/07/07 12:13:39;;;;;;;4.35;1.90;;;26.90;99.90;;;;;;6129175;23;20171;-83
2021/07/07 12:16:28;;;;;;;5.28;1.50;;;26.80;99.90;;;;;;6130331;23;20197;-83
2021/07/07 12:18:57;;;;;;;7.60;2.17;;;26.50;99.90;;;;;;6129603;23;20204;-82
2021/07/07 12:21:45;;;;;;;2.08;1.48;;;26.80;99.90;;;;;;6128647;23;20205;-82
2021/07/07 12:24:15;;;;;;;3.53;1.95;;;27.20;99.90;;;;;;6130200;23;20162;-83
2021/07/07 12:26:44;;;;;;;3.22;1.58;;;27.90;99.90;;;;;;6128829;23;20244;-83
2021/07/07 12:29:14;;;;;;;5.30;1.73;;;28.00;99.90;;;;;;6129146;23;20224;-82
2021/07/07 12:31:43;;;;;;;5.32;1.63;;;28.70;99.90;;;;;;6128755;23;20209;-83
2021/07/07 12:34:11;;;;;;;3.20;1.50;;;28.50;99.90;;;;;;6129648;23;20201;-83
2021/07/07 12:36:39;;;;;;;6.75;1.80;;;27.60;99.90;;;;;;6129170;23;20199;-83
2021/07/07 12:39:16;;;;;;;4.28;1.55;;;28.30;99.90;;;;;;6128514;23;20220;-83
2021/07/07 12:41:46;;;;;;;3.72;1.60;;;27.70;99.90;;;;;;6128929;23;20193;-83
2021/07/07 12:44:16;;;;;;;5.80;2.10;;;27.50;99.90;;;;;;6128549;23;20189;-83
2021/07/07 12:46:51;;;;;;;5.55;2.00;;;27.40;99.90;;;;;;6128964;23;20201;-83
2021/07/07 12:49:22;;;;;;;6.85;1.95;;;27.90;99.90;;;;;;6118856;23;20306;-82
2021/07/07 12:51:50;;;;;;;4.80;2.10;;;28.10;99.90;;;;;;6118698;23;20624;-82